createdAt,value
2023-01-13T00:00:33.937Z,85.84
2023-01-13T00:05:26.953Z,85.85
2023-01-13T00:10:19.956Z,85.80
2023-01-13T00:15:13.706Z,85.73
2023-01-13T00:20:07.340Z,85.78
2023-01-13T00:25:01.674Z,85.73
2023-01-13T00:29:54.715Z,85.61
2023-01-13T00:34:47.578Z,85.56
2023-01-13T00:39:40.452Z,85.50
2023-01-13T00:44:33.367Z,85.66
2023-01-13T00:49:26.637Z,85.52
2023-01-13T00:54:19.870Z,85.63
2023-01-13T00:59:14.649Z,85.62
2023-01-13T01:04:08.263Z,85.66
2023-01-13T01:09:01.175Z,85.80
2023-01-13T01:13:56.357Z,85.67
2023-01-13T01:18:50.969Z,85.68
2023-01-13T01:23:44.179Z,85.73
2023-01-13T01:28:37.130Z,85.86
2023-01-13T01:33:30.031Z,85.77
2023-01-13T01:38:23.744Z,85.87
2023-01-13T01:43:38.318Z,85.92
2023-01-13T01:48:40.433Z,85.92
2023-01-13T01:53:34.610Z,86.02
2023-01-13T01:58:33.824Z,85.98
2023-01-13T02:03:27.070Z,85.80
2023-01-13T02:08:20.726Z,85.95
2023-01-13T02:13:15.192Z,85.90
2023-01-13T02:18:29.678Z,85.94
2023-01-13T02:24:11.617Z,86.22
2023-01-13T02:29:56.079Z,86.34
2023-01-13T02:35:03.288Z,86.43
2023-01-13T02:40:02.076Z,86.37
2023-01-13T02:45:14.370Z,86.40
2023-01-13T02:50:14.128Z,86.39
2023-01-13T02:55:12.772Z,86.53
2023-01-13T03:00:08.823Z,86.42
2023-01-13T03:05:01.836Z,86.48
2023-01-13T03:10:18.786Z,86.46
2023-01-13T03:15:37.238Z,86.69
2023-01-13T03:20:36.302Z,86.68
2023-01-13T03:25:44.133Z,86.76
2023-01-13T03:30:49.913Z,86.90
2023-01-13T03:35:47.078Z,86.85
2023-01-13T03:40:52.051Z,86.95
2023-01-13T03:45:48.991Z,87.14
2023-01-13T03:50:59.578Z,87.11
2023-01-13T03:55:58.880Z,87.09
2023-01-13T04:01:01.300Z,87.22
2023-01-13T04:06:03.135Z,87.13
2023-01-13T04:11:07.942Z,87.07
2023-01-13T04:16:01.753Z,87.08
2023-01-13T04:20:57.432Z,86.96
2023-01-13T04:25:50.750Z,87.00
2023-01-13T04:30:44.513Z,86.97
2023-01-13T04:35:37.936Z,86.90
2023-01-13T04:40:30.885Z,86.83
2023-01-13T04:45:24.051Z,86.86
2023-01-13T04:50:19.673Z,86.88
2023-01-13T04:55:12.456Z,86.91
2023-01-13T05:00:08.069Z,86.91
2023-01-13T05:05:01.289Z,86.80
2023-01-13T05:09:54.120Z,86.91
2023-01-13T05:15:04.531Z,86.96
2023-01-13T05:19:57.314Z,86.93
2023-01-13T05:25:07.873Z,87.00
2023-01-13T05:30:00.775Z,87.13
2023-01-13T05:34:53.617Z,87.22
2023-01-13T05:40:03.904Z,87.07
2023-01-13T05:44:56.699Z,87.18
2023-01-13T05:49:49.568Z,87.13
2023-01-13T05:54:42.417Z,87.14
2023-01-13T05:59:35.867Z,87.31
2023-01-13T06:04:28.772Z,87.49
2023-01-13T06:09:22.877Z,87.82
2023-01-13T06:14:15.825Z,88.25
2023-01-13T06:19:09.531Z,88.64
2023-01-13T06:24:02.799Z,88.82
2023-01-13T06:28:55.865Z,89.10
2023-01-13T06:33:56.493Z,89.22
2023-01-13T06:38:53.751Z,89.51
2023-01-13T06:43:46.829Z,89.52
2023-01-13T06:48:39.640Z,89.77
2023-01-13T06:53:33.076Z,89.93
2023-01-13T06:58:25.891Z,89.92
2023-01-13T07:03:20.144Z,90.25
2023-01-13T07:08:13.097Z,90.38
2023-01-13T07:13:24.729Z,90.34
2023-01-13T07:18:17.562Z,90.61
2023-01-13T07:23:10.358Z,90.70
2023-01-13T07:28:03.152Z,90.79
2023-01-13T07:32:57.324Z,90.90
2023-01-13T07:37:50.292Z,90.97
2023-01-13T07:43:00.706Z,90.99
2023-01-13T07:47:54.244Z,91.01
2023-01-13T07:52:47.091Z,91.14
2023-01-13T07:57:39.915Z,91.21
2023-01-13T08:02:32.988Z,91.29
2023-01-13T08:07:25.919Z,91.33
2023-01-13T08:12:36.063Z,91.47
2023-01-13T08:17:28.855Z,91.34
2023-01-13T08:22:22.868Z,91.31
2023-01-13T08:27:15.765Z,91.35
2023-01-13T08:32:08.595Z,91.33
2023-01-13T08:37:01.404Z,91.44
2023-01-13T08:41:57.716Z,91.40
2023-01-13T08:46:51.072Z,91.48
2023-01-13T08:51:43.903Z,91.47
2023-01-13T08:56:36.810Z,91.42
2023-01-13T09:01:30.140Z,91.42
2023-01-13T09:06:23.183Z,91.42
2023-01-13T09:11:47.993Z,91.51
2023-01-13T09:16:40.852Z,91.40
2023-01-13T09:21:33.738Z,91.39
2023-01-13T09:26:26.783Z,91.29
2023-01-13T09:31:19.621Z,91.06
2023-01-13T09:36:12.562Z,91.06
2023-01-13T09:41:26.989Z,91.32
2023-01-13T09:46:47.556Z,91.09
2023-01-13T09:51:46.846Z,91.03
2023-01-13T09:56:39.710Z,91.12
2023-01-13T10:01:54.979Z,90.99
2023-01-13T10:06:56.735Z,90.97
2023-01-13T10:12:12.323Z,90.97
2023-01-13T10:17:21.470Z,91.18
2023-01-13T10:22:23.805Z,91.06
2023-01-13T10:27:35.019Z,90.97
2023-01-13T10:32:27.975Z,90.92
2023-01-13T10:37:29.466Z,91.15
2023-01-13T10:42:24.688Z,90.91
2023-01-13T10:47:31.324Z,90.99
2023-01-13T10:52:31.712Z,91.08
2023-01-13T10:57:28.833Z,90.88
2023-01-13T11:02:32.452Z,91.11
2023-01-13T11:07:31.420Z,91.10
2023-01-13T11:12:36.540Z,91.09
2023-01-13T11:17:45.652Z,91.17
2023-01-13T11:22:43.410Z,91.19
2023-01-13T11:27:42.078Z,91.07
2023-01-13T11:32:40.715Z,91.08
2023-01-13T11:37:42.275Z,90.77
2023-01-13T11:42:41.157Z,90.82
2023-01-13T11:47:36.693Z,90.38
2023-01-13T11:52:51.525Z,90.33
2023-01-13T11:58:22.640Z,90.24
2023-01-13T12:03:35.741Z,90.29
2023-01-13T12:08:50.137Z,90.05
2023-01-13T12:13:48.658Z,89.77
2023-01-13T12:19:19.527Z,89.54
2023-01-13T12:24:21.199Z,89.24
2023-01-13T12:29:19.174Z,89.17
2023-01-13T12:34:49.460Z,89.09
2023-01-13T12:40:27.176Z,89.26
2023-01-13T12:45:20.042Z,89.24
2023-01-13T12:50:24.942Z,89.18
2023-01-13T12:55:21.661Z,89.04
2023-01-13T13:00:16.336Z,89.17
2023-01-13T13:05:15.478Z,89.29
2023-01-13T13:10:33.149Z,89.33
2023-01-13T13:15:29.592Z,89.24
2023-01-13T13:21:02.913Z,89.34
2023-01-13T13:26:06.518Z,89.17
2023-01-13T13:31:18.497Z,89.13
2023-01-13T13:36:36.226Z,89.26
2023-01-13T13:41:46.772Z,89.21
2023-01-13T13:46:50.299Z,89.10
2023-01-13T13:52:03.382Z,89.24
2023-01-13T13:56:56.533Z,89.08
2023-01-13T14:02:01.744Z,89.05
2023-01-13T14:07:05.146Z,88.88
2023-01-13T14:12:07.848Z,89.08
2023-01-13T14:17:00.724Z,89.04
2023-01-13T14:21:54.910Z,89.08
2023-01-13T14:26:52.041Z,89.32
2023-01-13T14:31:45.467Z,89.07
2023-01-13T14:36:39.541Z,89.09
2023-01-13T14:41:38.098Z,89.22
2023-01-13T14:46:47.159Z,89.32
2023-01-13T14:51:40.063Z,89.55
2023-01-13T14:56:53.870Z,89.41
2023-01-13T15:01:46.884Z,89.48
2023-01-13T15:06:39.956Z,89.62
2023-01-13T15:11:32.873Z,89.53
2023-01-13T15:16:27.704Z,89.30
2023-01-13T15:21:20.765Z,89.38
2023-01-13T15:26:20.821Z,89.36
2023-01-13T15:31:13.666Z,89.37
2023-01-13T15:36:17.016Z,89.27
2023-01-13T15:41:11.548Z,89.22
2023-01-13T15:46:29.168Z,89.04
2023-01-13T15:51:22.065Z,88.83
2023-01-13T15:56:26.740Z,88.90
2023-01-13T16:01:20.086Z,88.69
2023-01-13T16:06:19.517Z,88.79
2023-01-13T16:11:13.422Z,88.64
2023-01-13T16:16:20.047Z,88.41
2023-01-13T16:21:14.383Z,88.46
2023-01-13T16:26:08.703Z,88.20
2023-01-13T16:31:04.062Z,87.99
2023-01-13T16:36:10.607Z,87.85
2023-01-13T16:41:06.514Z,87.85
2023-01-13T16:45:59.488Z,87.71
2023-01-13T16:50:52.761Z,87.54
2023-01-13T16:55:45.847Z,87.51
2023-01-13T17:00:38.716Z,87.46
2023-01-13T17:05:32.118Z,87.39
2023-01-13T17:10:29.753Z,87.48
2023-01-13T17:15:23.226Z,87.36
2023-01-13T17:20:18.353Z,87.19
2023-01-13T17:25:13.300Z,87.35
2023-01-13T17:30:07.187Z,87.19
2023-01-13T17:35:01.861Z,87.11
2023-01-13T17:39:55.946Z,86.85
2023-01-13T17:44:50.671Z,86.91
2023-01-13T17:49:43.482Z,86.71
2023-01-13T17:54:36.326Z,87.17
2023-01-13T17:59:29.148Z,87.44
2023-01-13T18:04:27.215Z,87.89
2023-01-13T18:09:20.553Z,88.26
2023-01-13T18:14:13.634Z,88.35
2023-01-13T18:19:20.949Z,88.87
2023-01-13T18:24:34.356Z,88.95
2023-01-13T18:29:27.232Z,89.36
2023-01-13T18:34:21.054Z,89.51
2023-01-13T18:39:14.035Z,89.75
2023-01-13T18:44:06.961Z,89.89
2023-01-13T18:48:59.755Z,90.01
2023-01-13T18:53:54.075Z,90.19
2023-01-13T18:58:52.265Z,90.12
2023-01-13T19:03:45.129Z,90.22
2023-01-13T19:08:37.995Z,90.28
2023-01-13T19:13:30.981Z,90.30
2023-01-13T19:18:24.140Z,90.31
2023-01-13T19:23:17.515Z,90.23
2023-01-13T19:28:10.314Z,90.22
2023-01-13T19:33:03.156Z,90.25
2023-01-13T19:37:56.461Z,90.09
2023-01-13T19:43:06.626Z,90.10
2023-01-13T19:48:02.618Z,90.08
2023-01-13T19:52:55.578Z,90.07
2023-01-13T19:57:48.622Z,89.95
2023-01-13T20:02:48.014Z,89.79
2023-01-13T20:07:40.995Z,89.76
2023-01-13T20:12:33.774Z,89.80
2023-01-13T20:17:26.680Z,89.91
2023-01-13T20:22:19.748Z,89.75
2023-01-13T20:27:12.645Z,89.80
2023-01-13T20:32:05.687Z,89.54
2023-01-13T20:36:58.540Z,89.59
2023-01-13T20:42:09.415Z,89.65
2023-01-13T20:47:02.974Z,89.71
2023-01-13T20:51:57.117Z,89.67
2023-01-13T20:56:50.445Z,89.74
2023-01-13T21:01:43.938Z,89.83
2023-01-13T21:06:36.878Z,89.96
2023-01-13T21:11:47.444Z,90.08
2023-01-13T21:16:40.625Z,90.12
2023-01-13T21:21:33.504Z,90.35
2023-01-13T21:26:26.352Z,90.47
2023-01-13T21:31:19.301Z,90.55
2023-01-13T21:36:16.814Z,90.74
2023-01-13T21:41:13.121Z,90.96
2023-01-13T21:46:30.587Z,90.95
2023-01-13T21:51:23.450Z,90.97
2023-01-13T21:56:16.402Z,91.33
2023-01-13T22:01:10.071Z,91.28
2023-01-13T22:06:05.099Z,91.15
2023-01-13T22:11:00.812Z,91.41
2023-01-13T22:15:53.729Z,91.33
2023-01-13T22:20:47.276Z,91.24
2023-01-13T22:25:40.065Z,91.58
2023-01-13T22:30:33.369Z,91.59
2023-01-13T22:35:26.233Z,91.67
2023-01-13T22:40:19.193Z,91.57
2023-01-13T22:45:14.521Z,91.25
2023-01-13T22:50:09.121Z,91.27
2023-01-13T22:55:02.178Z,91.09
2023-01-13T22:59:55.416Z,91.31
2023-01-13T23:04:48.419Z,91.09
2023-01-13T23:09:41.363Z,91.19
2023-01-13T23:14:34.354Z,91.41
2023-01-13T23:19:27.309Z,91.69
2023-01-13T23:24:20.867Z,91.69
2023-01-13T23:29:14.827Z,91.67
2023-01-13T23:34:08.688Z,91.48
2023-01-13T23:39:01.559Z,91.40
2023-01-13T23:44:00.065Z,91.11
2023-01-13T23:48:55.497Z,91.32
2023-01-13T23:53:50.615Z,91.14
2023-01-13T23:58:44.672Z,91.29
